createdAt,value
2017-12-03T22:13:25.639Z,89.60
2017-12-03T22:15:53.197Z,89.80
2017-12-03T22:18:20.870Z,90.00
2017-12-03T22:20:48.362Z,90.30
2017-12-03T22:23:15.919Z,90.50
2017-12-03T22:25:43.444Z,91.50
2017-12-03T22:28:10.980Z,91.00
2017-12-03T22:30:38.478Z,90.60
2017-12-03T22:33:06.014Z,90.40
2017-12-03T22:35:33.576Z,90.80
2017-12-03T22:38:01.098Z,90.70
2017-12-03T22:40:28.598Z,90.40
2017-12-03T22:42:56.111Z,90.30
2017-12-03T22:45:23.635Z,90.20
2017-12-03T22:47:51.147Z,91.30
2017-12-03T22:50:18.662Z,91.80
2017-12-03T22:52:46.206Z,91.80
2017-12-03T22:55:14.517Z,92.20
2017-12-03T22:57:42.019Z,92.00
2017-12-03T23:00:09.539Z,91.90
2017-12-03T23:02:37.055Z,91.60
2017-12-03T23:05:04.558Z,91.30
2017-12-03T23:07:32.091Z,90.80
2017-12-03T23:10:00.376Z,91.00
2017-12-03T23:12:27.906Z,90.80
2017-12-03T23:14:55.451Z,91.00
2017-12-03T23:17:23.096Z,90.90
2017-12-03T23:19:50.636Z,91.10
2017-12-03T23:22:18.902Z,91.40
2017-12-03T23:24:47.135Z,91.40
2017-12-03T23:27:14.657Z,92.30
2017-12-03T23:29:42.973Z,92.50
2017-12-03T23:32:10.535Z,91.60
2017-12-03T23:34:38.082Z,91.60
2017-12-03T23:37:06.447Z,91.10
2017-12-03T23:39:34.134Z,91.10
2017-12-03T23:42:01.676Z,90.80
2017-12-03T23:44:29.180Z,90.70
2017-12-03T23:46:56.708Z,91.00
2017-12-03T23:49:25.027Z,91.00
2017-12-03T23:51:52.517Z,90.10
2017-12-03T23:54:20.064Z,89.80
2017-12-03T23:56:47.563Z,89.50
2017-12-03T23:59:15.529Z,89.10
